Time;durP1;ratioP1;P1;durP2;ratioP2;P2;SDS_P1;SDS_P2;PMS_P1;PMS_P2;Temp;Humidity;BMP_temperature;BMP_pressure;BME280_temperature;BME280_humidity;BME280_pressure;Samples;Min_cycle;Max_cycle;Signal;HPM_P1;HPM_P2
2021/03/27 00:05:38;;;;;;;9.20;6.10;;;13.90;66.80;;;;;;4906437;29;20528;-87
2021/03/27 00:15:29;;;;;;;10.47;8.17;;;13.90;71.40;;;;;;4922075;29;20489;-87
2021/03/27 00:18:41;;;;;;;7.73;6.93;;;13.80;72.10;;;;;;4913356;29;20457;-87
2021/03/27 00:21:29;;;;;;;8.67;7.70;;;13.80;72.80;;;;;;4941996;29;20435;-87
2021/03/27 00:24:32;;;;;;;7.60;6.60;;;13.70;73.30;;;;;;4960792;28;20474;-86
2021/03/27 00:30:51;;;;;;;6.40;5.80;;;13.60;73.90;;;;;;4896977;29;20468;-84
2021/03/27 00:46:18;;;;;;;6.00;5.40;;;13.60;75.20;;;;;;4957278;28;20877;-86
2021/03/27 00:49:02;;;;;;;6.83;5.80;;;13.50;75.70;;;;;;4958471;28;20457;-86
2021/03/27 00:55:14;;;;;;;7.90;5.57;;;13.30;77.40;;;;;;4964813;28;20494;-86
2021/03/27 00:58:23;;;;;;;8.30;5.73;;;13.20;78.20;;;;;;4883992;29;20478;-88
2021/03/27 01:01:28;;;;;;;6.30;5.30;;;13.20;78.80;;;;;;4855683;29;20497;-87
2021/03/27 01:04:24;;;;;;;6.87;6.17;;;13.10;79.10;;;;;;4962113;28;20537;-87
2021/03/27 01:07:38;;;;;;;;;;;;;;;;;;;;;
2021/03/27 01:10:21;;;;;;;6.17;5.30;;;13.10;79.00;;;;;;4957774;28;20530;-87
2021/03/27 01:13:20;;;;;;;5.77;5.00;;;13.10;79.30;;;;;;4958139;29;20469;-87
2021/03/27 01:16:03;;;;;;;6.97;4.97;;;13.10;79.10;;;;;;4979972;23;20597;-88
2021/03/27 01:18:46;;;;;;;7.00;5.40;;;13.00;79.60;;;;;;4982494;28;20437;-86
2021/03/27 01:21:48;;;;;;;6.90;5.30;;;13.00;80.10;;;;;;4977764;28;20449;-86
2021/03/27 01:24:29;;;;;;;6.20;5.50;;;12.90;81.40;;;;;;4972230;29;20461;-85
2021/03/27 01:27:13;;;;;;;5.50;5.00;;;12.80;82.40;;;;;;4978532;29;20484;-86
2021/03/27 01:30:22;;;;;;;5.97;5.50;;;12.70;83.20;;;;;;4981622;28;20455;-85
2021/03/27 01:33:06;;;;;;;5.20;4.70;;;12.60;84.20;;;;;;4978540;28;20455;-85
2021/03/27 01:36:03;;;;;;;5.27;4.73;;;12.60;85.10;;;;;;4984984;23;20542;-86
2021/03/27 01:41:56;;;;;;;6.43;5.30;;;12.50;86.10;;;;;;4956326;29;20455;-86
2021/03/27 01:45:11;;;;;;;5.70;5.20;;;12.50;86.60;;;;;;4958000;29;20466;-86
2021/03/27 01:47:56;;;;;;;4.80;4.30;;;12.50;86.90;;;;;;4939906;29;20483;-86
2021/03/27 01:50:43;;;;;;;6.33;5.70;;;12.50;87.50;;;;;;4938599;29;20461;-86
2021/03/27 01:53:51;;;;;;;7.30;5.50;;;12.30;89.80;;;;;;4929454;29;20523;-88
2021/03/27 01:56:38;;;;;;;6.50;5.37;;;12.10;91.70;;;;;;4917881;29;20513;-87
2021/03/27 01:59:45;;;;;;;7.50;5.60;;;11.90;93.30;;;;;;4918491;29;20439;-88
2021/03/27 02:02:35;;;;;;;;;;;;;;;;;;;;;
2021/03/27 02:08:00;;;;;;;6.50;5.73;;;11.60;97.10;;;;;;5104451;23;20528;-87
2021/03/27 02:10:46;;;;;;;7.63;6.30;;;11.60;97.90;;;;;;4982728;28;20456;-87
2021/03/27 02:13:54;;;;;;;6.03;5.43;;;11.50;97.80;;;;;;4982022;28;20428;-86
2021/03/27 02:20:26;;;;;;;7.23;6.47;;;11.50;98.80;;;;;;4973667;28;20443;-87
2021/03/27 02:23:02;;;;;;;6.57;5.87;;;11.60;99.80;;;;;;5004240;23;20486;-90
2021/03/27 02:26:05;;;;;;;5.90;5.40;;;11.60;99.90;;;;;;4981862;28;20471;-90
2021/03/27 02:28:54;;;;;;;6.87;6.07;;;11.50;99.90;;;;;;4984195;28;20471;-90
2021/03/27 02:31:25;;;;;;;8.90;6.70;;;11.50;99.90;;;;;;4983648;28;20454;-89
2021/03/27 02:33:58;;;;;;;8.40;6.13;;;11.50;99.90;;;;;;4978015;28;20531;-90
2021/03/27 02:36:42;;;;;;;7.67;6.93;;;11.40;99.90;;;;;;4964769;28;20495;-91
2021/03/27 02:39:18;;;;;;;7.97;6.87;;;11.30;99.90;;;;;;4983159;28;20409;-89
2021/03/27 02:42:04;;;;;;;8.17;7.13;;;11.20;99.90;;;;;;4978315;28;20444;-90
2021/03/27 02:44:35;;;;;;;8.00;6.90;;;11.20;99.90;;;;;;4975293;28;20476;-90
2021/03/27 02:47:33;;;;;;;10.53;6.90;;;11.20;99.90;;;;;;4969482;28;20482;-90
2021/03/27 02:50:17;;;;;;;7.90;6.80;;;11.10;99.90;;;;;;4978985;28;20460;-90
2021/03/27 02:53:01;;;;;;;7.80;7.00;;;11.00;99.90;;;;;;4984006;28;20519;-90
2021/03/27 02:55:34;;;;;;;8.00;6.30;;;11.00;99.90;;;;;;4983170;28;20481;-90
2021/03/27 02:58:08;;;;;;;6.80;6.10;;;10.90;99.90;;;;;;4999839;28;20436;-88
2021/03/27 03:00:45;;;;;;;6.50;5.37;;;10.90;99.90;;;;;;5002109;28;20494;-89
2021/03/27 03:03:24;;;;;;;6.17;5.53;;;10.90;99.90;;;;;;4994429;28;20453;-88
2021/03/27 03:05:56;;;;;;;6.40;5.67;;;10.90;99.90;;;;;;4978969;29;20433;-89
2021/03/27 03:08:26;;;;;;;5.83;5.33;;;10.90;99.90;;;;;;4978891;28;20457;-89
2021/03/27 03:11:03;;;;;;;7.13;5.33;;;10.80;99.90;;;;;;4963976;28;20464;-90
2021/03/27 03:13:34;;;;;;;5.83;5.30;;;10.80;99.90;;;;;;4966279;28;20508;-90
2021/03/27 03:16:08;;;;;;;7.40;6.10;;;10.80;99.90;;;;;;4965423;28;20488;-91
2021/03/27 03:18:46;;;;;;;5.33;4.83;;;10.80;99.90;;;;;;4964277;28;20527;-90
2021/03/27 03:21:22;;;;;;;6.77;6.03;;;10.80;99.90;;;;;;4972567;28;20452;-91
2021/03/27 03:23:57;;;;;;;6.00;4.90;;;10.80;99.90;;;;;;4981724;28;20475;-90
2021/03/27 03:26:33;;;;;;;8.80;4.63;;;10.90;99.90;;;;;;4981360;28;20972;-90
2021/03/27 03:29:12;;;;;;;6.07;5.13;;;10.90;99.90;;;;;;4974459;28;20452;-90
2021/03/27 03:31:52;;;;;;;6.07;4.63;;;10.90;99.90;;;;;;4965575;28;20468;-89
2021/03/27 03:34:50;;;;;;;5.40;4.57;;;11.00;99.90;;;;;;4963242;29;20480;-90
2021/03/27 03:37:24;;;;;;;4.53;4.13;;;11.00;99.90;;;;;;4971334;29;20433;-89
2021/03/27 03:40:25;;;;;;;6.10;5.50;;;11.00;99.90;;;;;;4968393;28;20523;-90
2021/03/27 03:43:14;;;;;;;5.63;4.37;;;11.10;99.90;;;;;;4908742;29;20515;-90
2021/03/27 03:46:10;;;;;;;4.30;3.90;;;11.20;99.90;;;;;;4964435;28;20484;-89
2021/03/27 03:48:49;;;;;;;5.00;4.30;;;11.20;99.90;;;;;;4959056;28;20818;-89
2021/03/27 03:51:26;;;;;;;9.20;5.23;;;11.20;99.90;;;;;;4965835;28;20449;-91
2021/03/27 03:54:07;;;;;;;6.37;4.33;;;11.30;99.90;;;;;;4963462;28;20487;-90
2021/03/27 03:56:42;;;;;;;2.70;2.50;;;11.20;99.90;;;;;;4967738;28;20487;-91
2021/03/27 03:59:27;;;;;;;2.37;2.17;;;11.00;99.90;;;;;;4969469;28;20456;-92
2021/03/27 04:02:01;;;;;;;3.03;1.67;;;10.80;99.90;;;;;;4967906;28;20445;-91
2021/03/27 04:04:37;;;;;;;2.70;1.67;;;10.70;99.90;;;;;;4969384;28;20520;-91
2021/03/27 04:07:09;;;;;;;1.37;1.27;;;10.60;99.90;;;;;;4974966;28;20440;-89
2021/03/27 04:09:41;;;;;;;1.63;1.50;;;10.40;99.90;;;;;;4980360;28;20493;-91
2021/03/27 04:12:15;;;;;;;2.60;1.30;;;10.40;99.90;;;;;;4964393;28;20449;-91
2021/03/27 04:15:03;;;;;;;1.20;1.10;;;10.30;98.70;;;;;;4964656;28;20470;-89
2021/03/27 04:17:40;;;;;;;1.47;0.80;;;10.20;98.40;;;;;;4961237;28;20464;-91
2021/03/27 04:20:11;;;;;;;1.40;1.20;;;10.10;98.30;;;;;;4964636;28;20449;-90
2021/03/27 04:22:43;;;;;;;2.00;1.10;;;10.10;97.60;;;;;;4978453;28;20433;-91
2021/03/27 04:25:23;;;;;;;1.90;1.17;;;10.00;97.60;;;;;;4979698;28;20564;-90
2021/03/27 04:27:55;;;;;;;1.33;0.80;;;10.00;97.80;;;;;;4976748;28;20452;-89
2021/03/27 04:30:31;;;;;;;1.50;0.77;;;10.00;98.00;;;;;;4965944;28;20456;-90
2021/03/27 04:33:07;;;;;;;2.10;0.70;;;10.10;97.90;;;;;;4972781;28;20474;-89
2021/03/27 04:35:49;;;;;;;1.07;0.70;;;10.00;96.30;;;;;;4983264;28;20529;-90
2021/03/27 04:38:24;;;;;;;0.70;0.63;;;10.10;95.70;;;;;;4979634;28;20452;-90
2021/03/27 04:40:54;;;;;;;1.77;0.90;;;10.00;95.10;;;;;;4990251;28;20413;-90
2021/03/27 04:43:28;;;;;;;0.77;0.70;;;10.10;95.50;;;;;;4996961;28;20472;-89
2021/03/27 04:45:58;;;;;;;3.40;1.07;;;10.10;95.20;;;;;;5000811;28;20420;-88
2021/03/27 04:48:31;;;;;;;0.80;0.77;;;10.10;95.50;;;;;;4993924;28;20472;-90
2021/03/27 04:51:41;;;;;;;1.00;0.90;;;10.00;95.10;;;;;;4980789;28;20468;-89
2021/03/27 04:54:20;;;;;;;2.17;0.93;;;10.00;95.10;;;;;;4914360;29;20471;-89
2021/03/27 04:57:02;;;;;;;1.63;1.00;;;10.00;94.90;;;;;;4991509;28;20471;-88
2021/03/27 04:59:44;;;;;;;2.50;1.00;;;10.10;94.80;;;;;;4996038;28;20498;-90
2021/03/27 05:02:14;;;;;;;1.00;0.87;;;10.00;94.70;;;;;;4983297;28;20440;-90
2021/03/27 05:04:53;;;;;;;1.07;0.97;;;10.00;94.90;;;;;;4984533;28;20472;-90
2021/03/27 05:07:24;;;;;;;1.00;0.90;;;10.00;94.60;;;;;;4982536;28;20447;-90
2021/03/27 05:09:54;;;;;;;0.90;0.73;;;10.00;94.80;;;;;;4983073;28;20436;-89
2021/03/27 05:12:26;;;;;;;1.67;0.87;;;10.00;94.40;;;;;;4982861;28;20852;-89
2021/03/27 05:15:06;;;;;;;1.57;0.90;;;9.90;94.90;;;;;;4981962;28;20454;-89
2021/03/27 05:18:00;;;;;;;1.60;1.00;;;9.80;94.60;;;;;;4980417;28;20490;-89
2021/03/27 05:20:31;;;;;;;1.07;0.90;;;9.70;95.10;;;;;;4982566;28;20440;-89
2021/03/27 05:23:07;;;;;;;1.07;0.77;;;9.70;94.50;;;;;;4997956;28;20470;-89
2021/03/27 05:25:54;;;;;;;1.10;0.80;;;9.60;94.60;;;;;;4986732;28;20483;-89
2021/03/27 05:28:50;;;;;;;1.27;0.97;;;9.60;95.00;;;;;;4982300;28;20772;-90
2021/03/27 05:31:27;;;;;;;1.30;1.20;;;9.60;95.20;;;;;;4979469;28;20455;-89
2021/03/27 05:34:07;;;;;;;0.97;0.87;;;9.60;95.20;;;;;;4976837;28;20508;-90
2021/03/27 05:36:44;;;;;;;1.93;0.80;;;9.60;95.40;;;;;;4957801;28;20491;-89
2021/03/27 05:39:33;;;;;;;1.00;0.90;;;9.70;95.60;;;;;;4958410;29;20584;-91
2021/03/27 05:42:48;;;;;;;0.80;0.80;;;9.60;94.90;;;;;;4953833;28;20429;-90
2021/03/27 05:45:54;;;;;;;0.90;0.80;;;9.50;94.80;;;;;;4960047;28;20453;-89
2021/03/27 05:49:03;;;;;;;1.17;1.07;;;9.50;94.90;;;;;;4958268;29;20946;-88
2021/03/27 05:52:13;;;;;;;1.33;1.00;;;9.50;95.10;;;;;;4948203;29;20540;-89
2021/03/27 05:55:15;;;;;;;1.97;0.80;;;9.50;94.70;;;;;;4959955;28;20476;-88
2021/03/27 05:58:15;;;;;;;1.10;0.73;;;9.40;94.50;;;;;;4962553;28;20463;-91
2021/03/27 06:03:56;;;;;;;1.00;0.90;;;9.40;94.90;;;;;;4953310;28;20708;-86
2021/03/27 06:07:27;;;;;;;1.67;1.47;;;9.40;95.10;;;;;;4944621;29;20454;-85
2021/03/27 06:14:17;;;;;;;0.80;0.70;;;9.50;95.00;;;;;;4920273;29;20426;-86
2021/03/27 06:17:23;;;;;;;1.80;0.80;;;9.50;93.90;;;;;;4961666;23;20492;-88
2021/03/27 06:20:17;;;;;;;0.83;0.60;;;9.50;93.50;;;;;;4920398;28;20458;-89
2021/03/27 06:23:05;;;;;;;0.80;0.70;;;9.60;93.00;;;;;;4976371;28;20448;-87
2021/03/27 06:25:55;;;;;;;1.07;0.87;;;9.50;92.10;;;;;;4985017;28;20478;-87
2021/03/27 06:28:45;;;;;;;0.80;0.70;;;9.50;92.10;;;;;;4971381;28;20452;-87
2021/03/27 06:31:26;;;;;;;1.00;0.90;;;9.40;92.10;;;;;;4970798;28;20456;-87
2021/03/27 06:34:41;;;;;;;1.90;0.77;;;9.40;92.30;;;;;;4971446;28;20432;-90
2021/03/27 06:37:48;;;;;;;1.30;1.20;;;9.30;91.70;;;;;;4981418;28;20479;-89
2021/03/27 06:40:40;;;;;;;2.30;0.70;;;9.30;91.70;;;;;;4963427;28;20511;-89
2021/03/27 06:43:35;;;;;;;2.00;1.43;;;9.30;91.60;;;;;;4960853;29;20456;-89
2021/03/27 06:46:18;;;;;;;1.80;0.90;;;9.30;92.20;;;;;;4958068;29;20452;-89
2021/03/27 06:49:27;;;;;;;1.43;1.33;;;9.00;92.90;;;;;;4960467;29;20507;-90
2021/03/27 06:52:34;;;;;;;2.47;0.97;;;8.90;93.40;;;;;;4958499;28;20456;-89
2021/03/27 06:55:40;;;;;;;2.27;1.27;;;8.70;92.70;;;;;;4957557;29;20488;-88
2021/03/27 06:58:42;;;;;;;2.47;1.10;;;8.70;92.90;;;;;;4958117;29;20515;-89
2021/03/27 07:01:49;;;;;;;2.63;1.00;;;8.70;92.70;;;;;;4968898;28;20451;-89
2021/03/27 07:04:54;;;;;;;1.80;1.03;;;8.80;92.30;;;;;;4975062;28;20493;-90
2021/03/27 07:08:03;;;;;;;2.63;1.30;;;8.80;90.90;;;;;;4957738;29;20429;-89
2021/03/27 07:11:09;;;;;;;3.60;2.30;;;8.90;91.10;;;;;;4943860;28;20461;-89
2021/03/27 07:14:26;;;;;;;2.10;1.13;;;9.20;90.00;;;;;;4959992;28;20444;-90
2021/03/27 07:17:24;;;;;;;2.80;1.17;;;9.60;89.30;;;;;;4959657;29;20480;-89
2021/03/27 07:20:12;;;;;;;2.20;1.10;;;10.00;87.10;;;;;;4959982;28;20464;-90
2021/03/27 07:23:02;;;;;;;2.17;0.90;;;10.30;82.40;;;;;;4959588;29;20469;-90
2021/03/27 07:25:48;;;;;;;3.10;1.23;;;10.60;78.90;;;;;;4960514;29;20468;-90
2021/03/27 07:28:43;;;;;;;3.83;1.67;;;10.50;74.90;;;;;;4961311;29;20528;-90
2021/03/27 07:31:33;;;;;;;1.63;0.90;;;10.50;76.00;;;;;;4973411;28;20448;-89
2021/03/27 07:34:35;;;;;;;1.60;1.00;;;10.60;74.90;;;;;;4981610;28;20455;-90
2021/03/27 07:38:00;;;;;;;4.67;1.00;;;11.00;75.90;;;;;;4995775;28;20469;-89
2021/03/27 07:40:41;;;;;;;2.97;1.00;;;11.90;71.70;;;;;;4972614;28;20500;-89
2021/03/27 07:43:44;;;;;;;2.53;0.93;;;11.90;66.40;;;;;;4964169;29;20452;-90
2021/03/27 07:46:33;;;;;;;2.37;0.97;;;11.90;66.60;;;;;;4967338;29;20582;-90
2021/03/27 07:49:36;;;;;;;1.43;0.87;;;11.90;66.10;;;;;;4962541;28;20508;-90
2021/03/27 07:52:24;;;;;;;3.47;1.07;;;12.40;64.20;;;;;;4966168;29;20453;-90
2021/03/27 07:55:33;;;;;;;2.63;1.23;;;12.40;63.60;;;;;;4980449;23;20485;-88
2021/03/27 07:58:41;;;;;;;2.00;0.90;;;12.60;60.80;;;;;;4939998;29;20446;-88
2021/03/27 08:01:42;;;;;;;3.53;1.10;;;13.40;60.40;;;;;;4939839;29;20443;-88
2021/03/27 08:05:16;;;;;;;2.90;0.87;;;13.50;58.50;;;;;;4933417;29;20461;-89
2021/03/27 08:08:09;;;;;;;2.30;1.03;;;13.20;58.80;;;;;;4891567;29;20456;-89
2021/03/27 08:11:05;;;;;;;1.50;0.90;;;13.00;58.10;;;;;;4916416;29;20455;-88
2021/03/27 08:14:02;;;;;;;1.70;0.80;;;13.40;58.00;;;;;;4920869;29;20469;-88
2021/03/27 08:17:02;;;;;;;1.43;1.03;;;13.80;57.20;;;;;;4916370;29;21015;-89
2021/03/27 08:19:50;;;;;;;2.73;1.10;;;13.60;58.10;;;;;;4912983;29;20452;-90
2021/03/27 08:23:03;;;;;;;5.17;1.20;;;13.50;58.20;;;;;;4904867;29;20518;-89
2021/03/27 08:25:37;;;;;;;3.00;0.80;;;13.10;58.50;;;;;;4910736;29;20527;-90
2021/03/27 08:28:53;;;;;;;3.27;0.90;;;12.70;59.30;;;;;;4892707;29;20455;-91
2021/03/27 08:31:56;;;;;;;2.13;1.30;;;13.20;60.00;;;;;;4893514;29;20457;-89
2021/03/27 08:34:52;;;;;;;1.93;0.73;;;13.60;59.40;;;;;;4871913;29;20540;-91
2021/03/27 08:37:49;;;;;;;1.60;0.60;;;13.50;57.60;;;;;;4898466;29;20523;-89
2021/03/27 08:40:44;;;;;;;2.00;1.20;;;13.30;57.50;;;;;;4903455;29;20508;-90
2021/03/27 08:43:53;;;;;;;3.13;0.90;;;13.00;57.40;;;;;;4900778;29;20460;-89
2021/03/27 08:46:48;;;;;;;1.63;0.80;;;13.60;57.60;;;;;;4912683;29;20463;-89
2021/03/27 08:50:03;;;;;;;1.80;1.00;;;14.70;55.50;;;;;;4922229;29;20456;-90
2021/03/27 08:53:15;;;;;;;2.40;1.00;;;14.60;51.30;;;;;;4905590;29;20487;-89
2021/03/27 08:56:21;;;;;;;2.10;1.10;;;14.20;50.40;;;;;;4915161;29;20574;-91
2021/03/27 08:59:36;;;;;;;2.00;0.80;;;15.20;50.20;;;;;;4902756;29;20887;-91
2021/03/27 09:02:28;;;;;;;3.57;1.20;;;14.70;49.20;;;;;;4910223;29;20545;-89
2021/03/27 09:05:37;;;;;;;3.60;1.00;;;15.20;49.00;;;;;;4914471;29;20466;-90
2021/03/27 09:08:30;;;;;;;4.17;1.10;;;15.80;47.80;;;;;;4908693;29;20942;-89
2021/03/27 09:14:58;;;;;;;4.20;1.10;;;16.30;44.50;;;;;;4908248;29;20451;-88
2021/03/27 09:18:13;;;;;;;2.80;0.90;;;15.90;44.70;;;;;;4860174;29;20509;-90
2021/03/27 09:21:31;;;;;;;0.90;0.60;;;17.90;43.50;;;;;;4912293;29;20482;-88
2021/03/27 09:30:59;;;;;;;1.10;0.53;;;19.80;39.10;;;;;;4824514;29;20453;-88
2021/03/27 09:33:28;;;;;;;1.60;0.93;;;19.00;39.80;;;;;;4861826;29;20534;-88
2021/03/27 09:36:16;;;;;;;1.67;0.80;;;18.90;38.80;;;;;;4910260;29;20728;-85
2021/03/27 09:38:48;;;;;;;2.13;0.90;;;16.80;39.30;;;;;;4907468;29;20454;-86
2021/03/27 09:41:53;;;;;;;1.60;0.70;;;16.40;42.20;;;;;;4934434;29;20435;-87
2021/03/27 09:44:42;;;;;;;1.73;0.83;;;18.00;41.00;;;;;;4913253;29;20454;-88
2021/03/27 09:47:27;;;;;;;1.67;1.30;;;18.00;40.40;;;;;;4912019;29;20444;-87
2021/03/27 09:50:01;;;;;;;4.40;1.10;;;17.30;41.50;;;;;;4901313;29;20461;-87
2021/03/27 09:52:42;;;;;;;1.03;0.70;;;17.60;41.70;;;;;;4912962;29;20949;-90
2021/03/27 09:55:45;;;;;;;3.50;2.50;;;18.00;40.80;;;;;;4911318;29;20471;-88
2021/03/27 09:58:29;;;;;;;1.67;0.80;;;18.40;41.50;;;;;;4916682;29;20457;-88
2021/03/27 10:01:19;;;;;;;2.20;0.87;;;20.20;38.40;;;;;;4907325;29;20484;-90
2021/03/27 10:03:59;;;;;;;1.30;0.80;;;19.50;36.30;;;;;;4922808;29;20785;-89
2021/03/27 10:06:46;;;;;;;2.60;1.00;;;18.40;38.70;;;;;;4887057;29;20468;-89
2021/03/27 10:09:29;;;;;;;1.83;0.70;;;18.20;38.50;;;;;;4895275;29;20957;-89
2021/03/27 10:12:01;;;;;;;4.73;0.90;;;18.20;37.60;;;;;;4903591;29;20459;-90
2021/03/27 10:14:32;;;;;;;2.57;1.27;;;18.00;39.00;;;;;;4902837;29;20444;-90
2021/03/27 10:17:04;;;;;;;1.37;1.17;;;19.10;39.60;;;;;;4920215;29;20475;-90
2021/03/27 10:19:35;;;;;;;1.20;1.03;;;19.80;37.80;;;;;;4912475;29;20455;-90
2021/03/27 10:29:07;;;;;;;4.83;1.60;;;21.60;35.00;;;;;;4795909;29;20488;-90
2021/03/27 10:45:15;;;;;;;2.17;0.77;;;23.40;29.90;;;;;;4698329;30;20603;-87
2021/03/27 10:48:06;;;;;;;2.17;1.17;;;22.80;29.60;;;;;;4833501;29;20539;-89
2021/03/27 10:50:41;;;;;;;3.97;1.60;;;21.50;30.40;;;;;;4905913;29;20453;-89
2021/03/27 10:53:19;;;;;;;1.70;1.40;;;21.60;32.10;;;;;;4906363;29;20520;-87
2021/03/27 10:56:07;;;;;;;4.50;2.07;;;20.80;31.20;;;;;;4909448;29;20499;-88
2021/03/27 10:59:00;;;;;;;4.50;3.00;;;18.90;32.80;;;;;;4906840;29;20457;-88
2021/03/27 11:01:56;;;;;;;2.63;0.90;;;18.10;35.00;;;;;;4913514;29;20463;-88
2021/03/27 11:05:11;;;;;;;2.00;0.70;;;18.70;34.30;;;;;;4907082;29;20945;-88
2021/03/27 11:08:13;;;;;;;4.33;2.40;;;18.20;34.10;;;;;;4889755;29;20484;-88
2021/03/27 11:11:12;;;;;;;4.20;3.10;;;18.90;35.40;;;;;;4888589;29;20455;-88
2021/03/27 11:13:59;;;;;;;4.13;3.10;;;19.30;35.40;;;;;;4888596;29;20450;-90
2021/03/27 11:17:04;;;;;;;2.50;1.37;;;21.40;33.40;;;;;;4896623;29;20495;-88
2021/03/27 11:20:06;;;;;;;3.10;1.30;;;21.80;31.20;;;;;;4905666;29;20454;-89
2021/03/27 11:23:03;;;;;;;4.63;1.80;;;21.10;32.10;;;;;;4906458;29;20435;-88
2021/03/27 11:25:50;;;;;;;2.00;0.90;;;20.90;31.10;;;;;;4910608;29;20474;-88
2021/03/27 11:28:23;;;;;;;3.37;1.13;;;20.20;33.40;;;;;;4921435;29;20447;-89
2021/03/27 11:31:11;;;;;;;3.70;1.43;;;19.70;32.50;;;;;;4915608;29;20440;-89
2021/03/27 11:33:43;;;;;;;4.27;2.87;;;20.20;32.30;;;;;;4910339;29;20451;-88
2021/03/27 11:36:16;;;;;;;4.67;1.70;;;20.90;32.00;;;;;;4906840;29;21031;-88
2021/03/27 11:38:46;;;;;;;1.90;0.73;;;20.60;32.80;;;;;;4889477;29;20461;-88
2021/03/27 11:41:22;;;;;;;3.80;1.70;;;19.50;32.60;;;;;;4887687;29;20497;-89
2021/03/27 11:43:58;;;;;;;3.53;2.33;;;17.90;34.30;;;;;;4887163;29;20957;-89
2021/03/27 11:46:29;;;;;;;1.83;0.90;;;18.50;36.30;;;;;;4887119;29;21010;-89
2021/03/27 11:49:07;;;;;;;3.70;1.27;;;19.30;34.20;;;;;;4915700;29;20456;-89
2021/03/27 11:51:39;;;;;;;1.97;0.83;;;19.50;34.10;;;;;;4915438;29;20435;-90
2021/03/27 11:54:28;;;;;;;1.83;1.50;;;19.30;32.90;;;;;;4909950;29;20495;-89
2021/03/27 11:57:22;;;;;;;2.80;1.90;;;20.40;33.70;;;;;;4901361;29;20483;-88
2021/03/27 12:02:58;;;;;;;2.13;0.90;;;21.50;32.20;;;;;;4901159;29;20440;-89
2021/03/27 12:05:33;;;;;;;3.33;0.97;;;22.70;30.40;;;;;;4901662;29;20528;-88
2021/03/27 12:08:09;;;;;;;2.60;1.73;;;20.40;30.10;;;;;;4893864;29;20546;-88
2021/03/27 12:10:41;;;;;;;4.63;2.57;;;19.20;32.90;;;;;;4900680;29;20460;-88
2021/03/27 12:13:15;;;;;;;2.77;2.27;;;20.20;33.50;;;;;;4903023;29;20463;-88
2021/03/27 12:15:50;;;;;;;1.40;1.30;;;19.60;33.20;;;;;;4937601;23;20493;-85
2021/03/27 12:18:29;;;;;;;3.27;1.20;;;19.20;33.30;;;;;;4944528;29;20429;-86
2021/03/27 12:21:03;;;;;;;2.13;0.90;;;17.20;34.80;;;;;;4948793;29;20472;-85
2021/03/27 12:23:36;;;;;;;2.07;0.90;;;17.40;37.20;;;;;;4942877;29;20464;-86
2021/03/27 12:26:14;;;;;;;2.20;1.00;;;17.40;35.40;;;;;;4941316;29;20592;-85
2021/03/27 12:28:51;;;;;;;1.87;1.00;;;16.40;37.70;;;;;;4955238;29;20468;-86
2021/03/27 12:31:32;;;;;;;1.97;1.27;;;16.80;38.10;;;;;;4956841;28;20452;-85
2021/03/27 12:34:11;;;;;;;1.70;0.97;;;18.00;36.90;;;;;;4942326;29;20505;-86
2021/03/27 12:36:44;;;;;;;6.20;2.00;;;18.50;35.80;;;;;;4921300;29;20490;-85
2021/03/27 12:39:35;;;;;;;5.90;1.30;;;19.00;36.00;;;;;;4920799;29;20454;-86
2021/03/27 12:42:08;;;;;;;3.67;1.30;;;17.50;35.10;;;;;;4917889;29;20462;-85
2021/03/27 12:44:37;;;;;;;3.13;1.13;;;17.10;37.80;;;;;;4938293;29;20513;-84
2021/03/27 12:47:21;;;;;;;2.70;1.23;;;18.40;36.40;;;;;;4939196;29;20849;-84
2021/03/27 12:50:18;;;;;;;4.10;3.07;;;18.90;35.80;;;;;;4950983;29;20442;-85
2021/03/27 12:53:20;;;;;;;1.60;1.17;;;19.50;35.00;;;;;;4954966;29;20454;-84
2021/03/27 12:56:02;;;;;;;4.67;1.77;;;17.60;34.90;;;;;;4942468;29;20477;-83
2021/03/27 12:58:39;;;;;;;2.37;1.10;;;16.50;37.90;;;;;;4953271;29;20465;-84
2021/03/27 13:01:44;;;;;;;3.50;1.90;;;15.80;38.20;;;;;;4945441;29;20461;-84
2021/03/27 13:04:39;;;;;;;3.43;2.10;;;15.10;38.50;;;;;;4935266;29;20517;-84
2021/03/27 13:07:18;;;;;;;3.83;2.03;;;15.20;38.70;;;;;;4940934;29;20506;-84
2021/03/27 13:10:10;;;;;;;7.80;2.70;;;15.20;38.50;;;;;;4947709;29;20455;-84
2021/03/27 13:12:43;;;;;;;6.63;3.00;;;15.30;39.00;;;;;;4938785;29;20786;-84
2021/03/27 13:15:28;;;;;;;5.43;3.57;;;15.40;39.10;;;;;;4939932;29;20485;-84
2021/03/27 13:18:33;;;;;;;4.30;1.83;;;16.50;38.60;;;;;;4950341;29;20450;-85
2021/03/27 13:21:13;;;;;;;11.67;7.33;;;18.20;35.90;;;;;;4934724;29;20466;-85
2021/03/27 13:23:45;;;;;;;10.43;4.77;;;18.40;36.10;;;;;;4958209;29;20456;-85
2021/03/27 13:26:19;;;;;;;4.47;1.30;;;18.30;35.00;;;;;;4958933;29;20434;-85
2021/03/27 13:29:34;;;;;;;1.87;1.20;;;17.00;34.60;;;;;;4951618;29;20450;-85
2021/03/27 13:32:28;;;;;;;4.10;3.40;;;16.40;36.50;;;;;;4925845;29;20454;-86
2021/03/27 13:35:47;;;;;;;2.40;1.03;;;15.90;37.50;;;;;;4927594;29;20468;-86
2021/03/27 13:42:10;;;;;;;4.00;1.90;;;15.50;38.10;;;;;;4900414;29;20459;-85
2021/03/27 13:48:45;;;;;;;1.37;1.17;;;14.00;41.50;;;;;;4945950;29;20446;-85
2021/03/27 13:51:23;;;;;;;4.70;0.93;;;14.00;40.60;;;;;;4957591;28;20438;-85
2021/03/27 13:54:22;;;;;;;4.63;2.60;;;13.60;40.60;;;;;;4943563;29;20507;-85
2021/03/27 13:57:13;;;;;;;5.03;1.43;;;13.50;41.20;;;;;;4942977;29;20491;-86
2021/03/27 14:00:02;;;;;;;3.17;1.33;;;13.90;41.30;;;;;;4943259;29;20447;-84
2021/03/27 14:02:49;;;;;;;3.97;2.20;;;14.20;41.40;;;;;;4941841;29;20459;-86
2021/03/27 14:05:39;;;;;;;5.77;2.23;;;14.70;41.50;;;;;;4940888;29;20479;-85
2021/03/27 14:08:15;;;;;;;5.10;2.80;;;14.70;41.00;;;;;;4936997;29;20491;-84
2021/03/27 14:10:48;;;;;;;3.90;1.53;;;15.00;40.50;;;;;;4934877;28;20550;-84
2021/03/27 14:13:21;;;;;;;3.40;1.90;;;15.00;39.60;;;;;;4943508;29;20888;-85
2021/03/27 14:15:51;;;;;;;2.90;1.87;;;14.80;40.20;;;;;;4943908;28;20589;-85
2021/03/27 14:32:17;;;;;;;1.70;1.20;;;14.00;41.70;;;;;;4769730;29;20467;-86
2021/03/27 15:08:00;;;;;;;4.47;3.07;;;14.00;43.50;;;;;;4666837;23;20487;-84
2021/03/27 15:17:09;;;;;;;6.60;3.80;;;14.00;43.70;;;;;;4984279;23;21025;-86
2021/03/27 15:20:16;;;;;;;14.13;7.13;;;14.00;43.90;;;;;;4980682;28;20462;-86
2021/03/27 15:30:07;;;;;;;5.10;1.73;;;14.20;44.40;;;;;;4906794;29;20431;-86
2021/03/27 15:47:17;;;;;;;4.10;2.70;;;14.60;42.40;;;;;;4969802;28;20438;-85
2021/03/27 15:56:03;;;;;;;3.30;2.17;;;14.30;42.40;;;;;;4964429;28;20439;-86
2021/03/27 15:58:33;;;;;;;5.57;1.43;;;13.70;43.20;;;;;;4992394;28;20484;-86
2021/03/27 16:01:06;;;;;;;7.17;3.10;;;13.20;43.90;;;;;;4992783;28;20459;-87
2021/03/27 16:03:43;;;;;;;9.33;4.87;;;13.10;44.50;;;;;;4997803;28;20454;-85
2021/03/27 16:06:22;;;;;;;3.20;1.37;;;13.10;45.00;;;;;;5004760;28;20471;-86
2021/03/27 16:08:57;;;;;;;5.93;2.30;;;13.20;45.80;;;;;;5003189;28;20567;-86
2021/03/27 16:11:49;;;;;;;3.10;1.73;;;13.10;44.60;;;;;;4995206;28;20482;-86
2021/03/27 16:15:05;;;;;;;3.40;2.30;;;12.90;44.90;;;;;;5000233;28;20455;-85
2021/03/27 16:17:39;;;;;;;5.67;2.00;;;12.90;45.30;;;;;;4975340;28;20485;-86
2021/03/27 16:20:35;;;;;;;5.00;1.97;;;12.70;45.20;;;;;;4985391;28;20468;-86
2021/03/27 16:23:15;;;;;;;7.93;3.40;;;12.60;45.70;;;;;;4984724;28;20451;-86
2021/03/27 16:26:07;;;;;;;4.97;3.13;;;12.60;46.10;;;;;;4987319;28;20428;-86
2021/03/27 16:28:55;;;;;;;3.53;2.30;;;12.60;46.30;;;;;;4987237;28;20475;-85
2021/03/27 16:31:48;;;;;;;6.30;3.30;;;12.70;46.20;;;;;;4989871;28;20535;-85
2021/03/27 16:34:25;;;;;;;3.77;2.00;;;12.80;46.50;;;;;;4995091;28;20431;-86
2021/03/27 16:37:00;;;;;;;5.33;2.20;;;12.90;46.40;;;;;;4990894;28;20486;-88
2021/03/27 16:39:41;;;;;;;5.30;2.70;;;12.90;46.10;;;;;;4990341;28;20984;-86
2021/03/27 16:42:43;;;;;;;2.87;1.20;;;12.90;45.90;;;;;;4991128;28;20444;-86
2021/03/27 16:45:20;;;;;;;4.57;2.20;;;12.80;45.70;;;;;;4988784;28;20536;-86
2021/03/27 16:47:52;;;;;;;19.97;9.23;;;12.70;46.00;;;;;;4985461;28;20443;-85
2021/03/27 16:50:52;;;;;;;5.57;3.17;;;12.70;46.90;;;;;;4989364;28;20482;-85
2021/03/27 16:53:25;;;;;;;5.03;2.10;;;12.60;46.70;;;;;;4995014;28;20444;-86
2021/03/27 16:56:04;;;;;;;11.67;4.60;;;12.50;46.50;;;;;;4997097;28;20455;-86
2021/03/27 16:58:35;;;;;;;10.57;6.83;;;12.40;47.00;;;;;;4990987;28;20448;-86
2021/03/27 17:01:08;;;;;;;8.17;5.70;;;12.40;47.20;;;;;;4987080;28;20456;-86
2021/03/27 17:03:43;;;;;;;3.93;2.07;;;12.40;47.20;;;;;;4998157;28;20440;-86
2021/03/27 17:06:24;;;;;;;7.80;4.43;;;12.40;46.90;;;;;;4994366;28;20460;-86
2021/03/27 17:08:58;;;;;;;10.90;3.07;;;12.40;47.00;;;;;;4987571;28;20456;-87
2021/03/27 17:11:57;;;;;;;7.83;3.13;;;12.50;46.60;;;;;;4986981;28;20537;-86
2021/03/27 17:14:32;;;;;;;12.63;5.13;;;12.50;47.00;;;;;;4990868;28;20447;-85
2021/03/27 17:17:04;;;;;;;6.53;3.00;;;12.40;46.60;;;;;;4993269;28;20487;-85
2021/03/27 17:19:37;;;;;;;12.17;4.80;;;12.40;46.80;;;;;;4991530;28;20471;-87
2021/03/27 17:22:23;;;;;;;10.13;6.20;;;12.40;47.00;;;;;;4988425;28;20452;-86
2021/03/27 17:25:00;;;;;;;6.50;3.03;;;12.40;46.70;;;;;;4998456;28;20420;-85